Time;durP1;ratioP1;P1;durP2;ratioP2;P2;SDS_P1;SDS_P2;PMS_P1;PMS_P2;Temp;Humidity;BMP_temperature;BMP_pressure;BME280_temperature;BME280_humidity;BME280_pressure;Samples;Min_cycle;Max_cycle;Signal;HPM_P1;HPM_P2
2021/08/30 00:00:23;;;;;;;22.63;10.75;;;;;;;;;;5013370;28;20025;-46
2021/08/30 00:02:51;;;;;;;22.65;11.38;;;;;;;;;;5016652;28;20076;-48
2021/08/30 00:05:17;;;;;;;23.08;12.00;;;;;;;;;;5016708;28;20033;-46
2021/08/30 00:07:43;;;;;;;22.27;13.13;;;;;;;;;;5016591;28;20435;-50
2021/08/30 00:10:09;;;;;;;18.00;8.38;;;;;;;;;;5016154;28;20080;-46
2021/08/30 00:12:40;;;;;;;10.07;6.25;;;;;;;;;;5016605;28;20033;-48
2021/08/30 00:15:07;;;;;;;54.10;21.27;;;;;;;;;;5016507;28;20061;-47
2021/08/30 00:17:34;;;;;;;24.25;12.20;;;;;;;;;;5016519;28;20028;-47
2021/08/30 00:20:00;;;;;;;27.65;15.68;;;;;;;;;;5016397;28;20029;-50
2021/08/30 00:22:26;;;;;;;19.08;9.95;;;;;;;;;;5016378;28;20088;-45
2021/08/30 00:24:54;;;;;;;27.15;15.68;;;;;;;;;;5016221;28;20117;-48
2021/08/30 00:27:20;;;;;;;18.73;9.50;;;;;;;;;;5016414;28;20053;-49
2021/08/30 00:29:46;;;;;;;17.10;9.63;;;;;;;;;;5016207;28;20033;-46
2021/08/30 00:32:12;;;;;;;21.27;10.32;;;;;;;;;;5016169;28;20419;-48
2021/08/30 00:34:39;;;;;;;9.27;5.28;;;;;;;;;;5016265;28;20029;-47
2021/08/30 00:37:05;;;;;;;22.70;11.10;;;;;;;;;;5016092;28;20093;-47
2021/08/30 00:39:32;;;;;;;41.08;22.45;;;;;;;;;;5015879;28;20487;-47
2021/08/30 00:41:58;;;;;;;42.00;23.92;;;;;;;;;;5016087;28;20030;-47
2021/08/30 00:44:25;;;;;;;27.75;15.23;;;;;;;;;;5015878;28;20026;-46
2021/08/30 00:46:51;;;;;;;27.65;14.85;;;;;;;;;;5016160;28;20554;-47
2021/08/30 00:49:18;;;;;;;33.58;20.38;;;;;;;;;;5015826;28;20030;-46
2021/08/30 00:51:45;;;;;;;47.75;25.05;;;;;;;;;;5015884;28;20033;-47
2021/08/30 00:54:11;;;;;;;37.88;18.50;;;;;;;;;;5015836;28;20022;-49
2021/08/30 00:56:38;;;;;;;49.90;21.90;;;;;;;;;;5015711;28;20148;-47
2021/08/30 00:59:04;;;;;;;34.65;18.88;;;;;;;;;;5015788;28;20478;-49
2021/08/30 01:01:30;;;;;;;21.60;10.10;;;;;;;;;;5015686;28;20053;-47
2021/08/30 01:03:56;;;;;;;17.48;9.68;;;;;;;;;;5015720;28;20037;-47
2021/08/30 01:06:38;;;;;;;7.60;4.10;;;;;;;;;;5015497;28;20471;-47
2021/08/30 01:09:13;;;;;;;7.65;4.43;;;;;;;;;;5015162;28;20188;-47
2021/08/30 01:11:43;;;;;;;8.45;4.82;;;;;;;;;;5015144;28;20512;-48
2021/08/30 01:14:10;;;;;;;8.75;5.90;;;;;;;;;;5015125;28;20021;-49
2021/08/30 01:16:38;;;;;;;19.45;11.00;;;;;;;;;;5015398;28;20053;-50
2021/08/30 01:19:05;;;;;;;44.58;23.02;;;;;;;;;;5015205;28;20029;-48
2021/08/30 01:21:33;;;;;;;19.55;10.30;;;;;;;;;;5015366;28;20029;-51
2021/08/30 01:24:02;;;;;;;52.05;24.02;;;;;;;;;;5015271;28;20469;-51
2021/08/30 01:26:33;;;;;;;19.33;10.45;;;;;;;;;;5015162;28;20101;-49
2021/08/30 01:29:00;;;;;;;22.10;12.52;;;;;;;;;;5015199;28;20048;-50
2021/08/30 01:31:29;;;;;;;37.10;17.85;;;;;;;;;;5015105;28;20360;-46
2021/08/30 01:33:55;;;;;;;40.70;22.20;;;;;;;;;;5015050;28;20083;-48
2021/08/30 01:36:22;;;;;;;44.00;21.70;;;;;;;;;;5015188;28;20034;-50
2021/08/30 01:38:51;;;;;;;31.15;18.10;;;;;;;;;;5015050;28;20395;-48
2021/08/30 01:41:18;;;;;;;22.88;10.13;;;;;;;;;;5014791;28;20022;-50
2021/08/30 01:43:45;;;;;;;44.75;24.60;;;;;;;;;;5014887;28;20022;-50
2021/08/30 01:46:12;;;;;;;34.90;16.70;;;;;;;;;;5014900;28;20029;-50
2021/08/30 01:48:38;;;;;;;15.40;8.48;;;;;;;;;;5014698;28;20034;-47
2021/08/30 01:51:04;;;;;;;26.70;11.48;;;;;;;;;;5014694;28;20065;-48
2021/08/30 01:53:31;;;;;;;20.73;8.70;;;;;;;;;;5014779;28;20096;-48
2021/08/30 01:56:03;;;;;;;18.65;10.73;;;;;;;;;;5014636;28;20057;-49
2021/08/30 02:00:56;;;;;;;13.80;6.82;;;;;;;;;;5014633;28;20029;-49
2021/08/30 02:03:22;;;;;;;12.75;6.65;;;;;;;;;;5014463;28;20061;-48
2021/08/30 02:05:50;;;;;;;8.32;4.57;;;;;;;;;;5014450;28;20026;-47
2021/08/30 02:08:16;;;;;;;14.75;7.38;;;;;;;;;;5014400;28;20502;-45
2021/08/30 02:10:43;;;;;;;7.20;3.50;;;;;;;;;;5014100;28;20057;-45
2021/08/30 02:13:10;;;;;;;12.15;7.07;;;;;;;;;;5014449;28;20029;-48
2021/08/30 02:15:37;;;;;;;12.93;5.65;;;;;;;;;;5014341;28;20050;-48
2021/08/30 02:18:07;;;;;;;5.75;2.45;;;;;;;;;;5014263;28;20074;-48
2021/08/30 02:20:34;;;;;;;6.60;4.18;;;;;;;;;;5014502;28;20498;-49
2021/08/30 02:23:02;;;;;;;11.40;4.40;;;;;;;;;;5014465;28;20022;-48
2021/08/30 02:25:28;;;;;;;6.53;4.65;;;;;;;;;;5014050;28;20029;-46
2021/08/30 02:27:57;;;;;;;10.05;5.38;;;;;;;;;;5014158;28;20113;-49
2021/08/30 02:30:35;;;;;;;6.63;3.90;;;;;;;;;;5013900;28;20044;-49
2021/08/30 02:33:03;;;;;;;11.52;4.95;;;;;;;;;;5014174;28;20026;-49
2021/08/30 02:35:30;;;;;;;11.32;4.32;;;;;;;;;;5014249;28;20051;-49
2021/08/30 02:37:57;;;;;;;8.45;4.32;;;;;;;;;;5013974;28;20390;-50
2021/08/30 02:40:29;;;;;;;21.30;12.35;;;;;;;;;;5013531;28;20030;-47
2021/08/30 02:43:00;;;;;;;14.18;9.60;;;;;;;;;;5013814;28;20394;-50
2021/08/30 02:45:26;;;;;;;66.55;33.75;;;;;;;;;;5013782;28;20029;-49
2021/08/30 02:47:53;;;;;;;34.65;20.77;;;;;;;;;;5013726;28;20032;-50
2021/08/30 02:50:22;;;;;;;21.23;12.13;;;;;;;;;;5013833;28;20046;-47
2021/08/30 02:52:49;;;;;;;13.73;5.93;;;;;;;;;;5013691;28;20041;-49
2021/08/30 02:55:15;;;;;;;15.05;8.38;;;;;;;;;;5013762;28;20029;-47
2021/08/30 02:57:41;;;;;;;16.05;8.15;;;;;;;;;;5013686;28;20482;-47
2021/08/30 03:00:07;;;;;;;12.55;8.00;;;;;;;;;;5013658;28;20037;-47
2021/08/30 03:02:34;;;;;;;13.98;7.45;;;;;;;;;;5013536;28;20029;-47
2021/08/30 03:05:01;;;;;;;4.28;3.38;;;;;;;;;;5013629;28;20104;-49
2021/08/30 03:07:30;;;;;;;7.22;4.95;;;;;;;;;;5013649;28;20022;-50
2021/08/30 03:09:57;;;;;;;8.45;6.10;;;;;;;;;;5013098;28;20465;-49
2021/08/30 03:12:25;;;;;;;14.00;8.25;;;;;;;;;;5013381;28;20026;-49
2021/08/30 03:14:54;;;;;;;5.05;4.30;;;;;;;;;;5013588;28;20080;-49
2021/08/30 03:17:21;;;;;;;7.80;3.33;;;;;;;;;;5013503;28;20022;-49
2021/08/30 03:19:48;;;;;;;7.63;5.35;;;;;;;;;;5013363;28;20418;-50
2021/08/30 03:22:16;;;;;;;8.38;5.93;;;;;;;;;;5013405;28;20026;-50
2021/08/30 03:24:43;;;;;;;8.77;4.00;;;;;;;;;;5013589;28;20080;-49
2021/08/30 03:27:10;;;;;;;5.82;3.42;;;;;;;;;;5013359;28;20489;-49
2021/08/30 03:29:39;;;;;;;6.10;2.70;;;;;;;;;;5013295;28;20080;-46
2021/08/30 03:32:07;;;;;;;6.65;4.43;;;;;;;;;;5013242;28;20045;-49
2021/08/30 03:34:34;;;;;;;5.35;4.03;;;;;;;;;;5013408;28;20022;-48
2021/08/30 03:37:00;;;;;;;8.95;4.40;;;;;;;;;;5016559;28;20386;-48
2021/08/30 03:39:27;;;;;;;6.82;4.65;;;;;;;;;;5017230;28;20026;-46
2021/08/30 03:41:54;;;;;;;6.55;4.32;;;;;;;;;;5017155;28;20037;-49
2021/08/30 03:44:21;;;;;;;9.75;4.03;;;;;;;;;;5017321;28;20032;-48
2021/08/30 03:46:47;;;;;;;8.85;3.13;;;;;;;;;;5015884;28;20057;-45
2021/08/30 03:49:13;;;;;;;5.32;3.60;;;;;;;;;;5017115;28;20515;-48
2021/08/30 03:51:40;;;;;;;8.23;3.22;;;;;;;;;;5017351;28;20478;-49
2021/08/30 03:54:06;;;;;;;7.25;3.63;;;;;;;;;;5017246;28;20022;-49
2021/08/30 03:56:33;;;;;;;4.65;3.75;;;;;;;;;;5016905;28;20029;-48
2021/08/30 03:59:00;;;;;;;6.18;3.40;;;;;;;;;;5017399;28;20038;-48
2021/08/30 04:01:27;;;;;;;8.65;3.67;;;;;;;;;;5017147;28;20033;-49
2021/08/30 04:03:55;;;;;;;7.50;4.47;;;;;;;;;;5016996;28;20036;-48
2021/08/30 04:06:22;;;;;;;11.50;4.57;;;;;;;;;;5017002;28;20037;-48
2021/08/30 04:08:50;;;;;;;11.05;5.03;;;;;;;;;;5016697;28;20071;-49
2021/08/30 04:11:16;;;;;;;7.18;4.25;;;;;;;;;;5016544;28;20046;-50
2021/08/30 04:13:42;;;;;;;10.63;4.05;;;;;;;;;;5016672;28;20024;-46
2021/08/30 04:16:08;;;;;;;6.30;4.03;;;;;;;;;;5016888;28;20034;-49
2021/08/30 04:18:35;;;;;;;8.27;3.63;;;;;;;;;;5016603;28;20025;-48
2021/08/30 04:21:02;;;;;;;8.35;4.00;;;;;;;;;;5016613;28;20029;-48
2021/08/30 04:23:30;;;;;;;6.47;3.85;;;;;;;;;;5016676;28;20021;-49
2021/08/30 04:25:56;;;;;;;4.57;3.95;;;;;;;;;;5016262;28;20065;-49
2021/08/30 04:28:22;;;;;;;6.97;3.22;;;;;;;;;;5016335;28;20098;-49
2021/08/30 04:30:48;;;;;;;5.00;3.80;;;;;;;;;;5016248;28;20034;-50
2021/08/30 04:33:19;;;;;;;4.18;3.08;;;;;;;;;;5016391;28;20030;-50
2021/08/30 04:35:47;;;;;;;4.15;3.40;;;;;;;;;;5016385;28;20443;-49
2021/08/30 04:38:13;;;;;;;6.63;3.30;;;;;;;;;;5015999;28;20050;-48
2021/08/30 04:40:40;;;;;;;5.13;2.92;;;;;;;;;;5016209;28;20025;-49
2021/08/30 04:43:09;;;;;;;6.03;3.38;;;;;;;;;;5016165;28;20109;-48
2021/08/30 04:45:35;;;;;;;6.22;3.20;;;;;;;;;;5016156;28;20028;-49
2021/08/30 04:48:01;;;;;;;6.40;3.35;;;;;;;;;;5014843;28;20406;-48
2021/08/30 04:50:27;;;;;;;7.25;3.17;;;;;;;;;;5016086;28;20091;-48
2021/08/30 04:52:53;;;;;;;3.70;2.80;;;;;;;;;;5016107;28;20493;-48
2021/08/30 04:55:19;;;;;;;4.95;3.28;;;;;;;;;;5015849;28;20033;-47
2021/08/30 04:57:45;;;;;;;4.55;2.63;;;;;;;;;;5015982;28;20022;-48
2021/08/30 05:00:12;;;;;;;6.20;3.22;;;;;;;;;;5016099;28;20030;-48
2021/08/30 05:02:39;;;;;;;4.70;2.97;;;;;;;;;;5015920;28;20016;-47
2021/08/30 05:05:05;;;;;;;7.53;2.88;;;;;;;;;;5015994;28;20026;-49
2021/08/30 05:07:31;;;;;;;7.65;2.63;;;;;;;;;;5015971;28;20045;-50
2021/08/30 05:09:57;;;;;;;5.47;2.67;;;;;;;;;;5015453;28;20046;-49
2021/08/30 05:12:26;;;;;;;3.25;2.30;;;;;;;;;;5015693;28;20490;-49
2021/08/30 05:14:55;;;;;;;5.07;2.40;;;;;;;;;;5015737;28;20107;-47
2021/08/30 05:17:21;;;;;;;5.75;2.35;;;;;;;;;;5015659;28;20518;-49
2021/08/30 05:19:47;;;;;;;4.80;2.50;;;;;;;;;;5015826;28;20049;-48
2021/08/30 05:22:13;;;;;;;5.45;3.63;;;;;;;;;;5015526;28;20549;-47
2021/08/30 05:24:43;;;;;;;11.45;5.35;;;;;;;;;;5015597;28;20092;-48
2021/08/30 05:27:09;;;;;;;4.95;2.58;;;;;;;;;;5015243;28;20026;-48
2021/08/30 05:29:35;;;;;;;7.90;3.35;;;;;;;;;;5015350;28;20378;-48
2021/08/30 05:32:02;;;;;;;18.42;7.25;;;;;;;;;;5015379;28;20076;-49
2021/08/30 05:34:28;;;;;;;12.45;5.85;;;;;;;;;;5015198;28;20084;-47
2021/08/30 05:36:54;;;;;;;7.82;4.13;;;;;;;;;;5015198;28;20033;-48
2021/08/30 05:39:20;;;;;;;10.98;5.97;;;;;;;;;;5015150;28;20056;-47
2021/08/30 05:41:46;;;;;;;10.15;4.97;;;;;;;;;;5015148;28;20486;-47
2021/08/30 05:44:12;;;;;;;8.57;5.07;;;;;;;;;;5015303;28;20018;-46
2021/08/30 05:46:38;;;;;;;3.85;2.55;;;;;;;;;;5015389;28;20026;-47
2021/08/30 05:49:04;;;;;;;6.40;4.50;;;;;;;;;;5015029;28;20084;-46
2021/08/30 05:51:30;;;;;;;16.45;8.82;;;;;;;;;;5015013;28;20093;-54
2021/08/30 05:53:56;;;;;;;9.38;5.00;;;;;;;;;;5014909;28;20022;-48
2021/08/30 05:56:23;;;;;;;10.95;3.13;;;;;;;;;;5014647;28;20108;-50
2021/08/30 05:58:49;;;;;;;7.78;4.57;;;;;;;;;;5014651;28;20022;-47
2021/08/30 06:01:16;;;;;;;6.53;2.30;;;;;;;;;;5014819;28;20080;-53
2021/08/30 06:03:42;;;;;;;8.27;4.18;;;;;;;;;;5014705;28;20441;-43
2021/08/30 06:06:08;;;;;;;5.47;3.60;;;;;;;;;;5014860;28;20021;-45
2021/08/30 06:08:34;;;;;;;3.38;2.35;;;;;;;;;;5014509;28;20037;-53
2021/08/30 06:11:00;;;;;;;3.78;1.90;;;;;;;;;;5014202;28;20050;-52
2021/08/30 06:13:27;;;;;;;3.72;2.67;;;;;;;;;;5014720;28;20113;-46
2021/08/30 06:15:53;;;;;;;28.17;15.80;;;;;;;;;;5014668;28;20029;-50
2021/08/30 06:18:20;;;;;;;6.65;3.47;;;;;;;;;;5014759;28;20025;-49
2021/08/30 06:20:48;;;;;;;5.30;2.97;;;;;;;;;;5014542;28;20058;-50
2021/08/30 06:23:14;;;;;;;8.95;3.20;;;;;;;;;;5014375;28;20026;-49
2021/08/30 06:25:40;;;;;;;8.90;5.38;;;;;;;;;;5014283;28;20029;-48
2021/08/30 06:28:06;;;;;;;5.15;2.53;;;;;;;;;;5014527;28;20018;-47
2021/08/30 06:30:34;;;;;;;5.65;3.45;;;;;;;;;;5014234;28;20121;-46
2021/08/30 06:33:00;;;;;;;4.55;2.80;;;;;;;;;;5014155;28;20034;-51
2021/08/30 06:35:26;;;;;;;3.90;2.70;;;;;;;;;;5014232;28;20030;-52
2021/08/30 06:37:52;;;;;;;8.55;3.08;;;;;;;;;;5014035;28;20105;-51
2021/08/30 06:40:20;;;;;;;3.78;2.92;;;;;;;;;;5013665;28;20026;-49
2021/08/30 06:42:46;;;;;;;3.38;2.15;;;;;;;;;;5013987;28;20117;-52
2021/08/30 06:45:13;;;;;;;5.40;2.28;;;;;;;;;;5013916;28;20026;-49
2021/08/30 06:47:42;;;;;;;9.77;4.05;;;;;;;;;;5014196;28;20474;-51
2021/08/30 06:50:09;;;;;;;4.90;2.50;;;;;;;;;;5013947;28;20038;-47
2021/08/30 06:52:35;;;;;;;4.80;3.08;;;;;;;;;;5013995;28;20026;-49
2021/08/30 06:55:01;;;;;;;6.88;3.40;;;;;;;;;;5013654;28;20079;-48
2021/08/30 06:57:33;;;;;;;12.77;6.85;;;;;;;;;;5013699;28;20030;-47
2021/08/30 06:59:59;;;;;;;10.10;4.80;;;;;;;;;;5013968;28;20076;-47
2021/08/30 07:02:28;;;;;;;9.43;4.00;;;;;;;;;;5013805;28;20054;-48
2021/08/30 07:04:54;;;;;;;8.80;2.65;;;;;;;;;;5013978;28;20024;-47
2021/08/30 07:07:20;;;;;;;4.28;2.22;;;;;;;;;;5013774;28;20103;-48
2021/08/30 07:09:46;;;;;;;4.90;3.08;;;;;;;;;;5012816;28;20100;-47
2021/08/30 07:12:12;;;;;;;5.22;1.92;;;;;;;;;;5013468;28;20554;-47
2021/08/30 07:14:38;;;;;;;5.40;2.97;;;;;;;;;;5013695;28;20072;-47
2021/08/30 07:17:04;;;;;;;5.95;3.40;;;;;;;;;;5013709;28;20026;-46
2021/08/30 07:19:30;;;;;;;7.15;3.53;;;;;;;;;;5013642;28;20474;-47
2021/08/30 07:21:57;;;;;;;10.77;4.43;;;;;;;;;;5013768;28;20030;-47
2021/08/30 07:24:23;;;;;;;4.47;2.13;;;;;;;;;;5013533;28;20026;-49
2021/08/30 07:26:49;;;;;;;4.05;1.95;;;;;;;;;;5013593;28;20034;-49
2021/08/30 07:29:15;;;;;;;9.27;2.63;;;;;;;;;;5013474;28;20029;-49
2021/08/30 07:31:41;;;;;;;7.50;1.90;;;;;;;;;;5013330;28;20044;-47
2021/08/30 07:34:07;;;;;;;4.65;2.33;;;;;;;;;;5012284;28;20069;-47
2021/08/30 07:36:34;;;;;;;8.57;2.90;;;;;;;;;;5013525;28;20025;-47
2021/08/30 07:39:00;;;;;;;3.97;1.85;;;;;;;;;;5013672;28;20096;-48
2021/08/30 07:41:29;;;;;;;9.13;6.35;;;;;;;;;;5013224;28;20032;-47
2021/08/30 07:43:57;;;;;;;4.65;3.30;;;;;;;;;;5013541;28;20409;-50
2021/08/30 07:46:23;;;;;;;16.90;8.27;;;;;;;;;;5013569;28;20030;-48
2021/08/30 07:48:50;;;;;;;7.07;3.65;;;;;;;;;;5013442;28;20021;-48
2021/08/30 07:51:17;;;;;;;21.05;9.50;;;;;;;;;;5013223;28;20113;-48
2021/08/30 07:53:43;;;;;;;9.15;3.08;;;;;;;;;;5013338;28;20026;-48
2021/08/30 07:56:10;;;;;;;6.15;2.75;;;;;;;;;;5013180;28;20080;-48
2021/08/30 07:58:36;;;;;;;6.10;3.30;;;;;;;;;;5013389;28;20401;-48
2021/08/30 08:01:02;;;;;;;4.78;3.17;;;;;;;;;;5013510;28;20436;-48
2021/08/30 08:03:28;;;;;;;10.55;5.60;;;;;;;;;;5013304;28;20022;-49
2021/08/30 08:05:54;;;;;;;7.43;3.28;;;;;;;;;;5013389;28;20030;-49
2021/08/30 08:08:20;;;;;;;11.00;4.82;;;;;;;;;;5013070;28;20029;-48
2021/08/30 08:10:46;;;;;;;5.50;2.20;;;;;;;;;;5012796;28;20085;-49
2021/08/30 08:13:12;;;;;;;4.95;2.22;;;;;;;;;;5013065;28;20033;-49
2021/08/30 08:15:38;;;;;;;15.60;5.78;;;;;;;;;;5013073;28;20122;-49
2021/08/30 08:18:05;;;;;;;3.85;2.70;;;;;;;;;;5013259;28;20022;-47
2021/08/30 08:20:32;;;;;;;11.43;5.28;;;;;;;;;;5013254;28;20152;-49
2021/08/30 08:23:01;;;;;;;23.55;7.78;;;;;;;;;;5015986;28;20026;-48
2021/08/30 08:25:27;;;;;;;16.88;6.53;;;;;;;;;;5016624;28;20037;-47
2021/08/30 08:27:54;;;;;;;37.67;18.73;;;;;;;;;;5016593;28;20060;-47
2021/08/30 08:30:20;;;;;;;16.08;8.15;;;;;;;;;;5016528;28;20390;-48
2021/08/30 08:32:49;;;;;;;131.50;69.53;;;;;;;;;;5016425;28;20080;-47
2021/08/30 08:35:16;;;;;;;35.78;18.70;;;;;;;;;;5016460;28;20410;-49
2021/08/30 08:37:42;;;;;;;103.45;55.92;;;;;;;;;;5015890;28;20018;-43
2021/08/30 08:40:08;;;;;;;74.53;35.25;;;;;;;;;;4995719;28;20046;-49
2021/08/30 08:42:38;;;;;;;78.97;45.75;;;;;;;;;;4996106;28;20081;-48
2021/08/30 08:45:05;;;;;;;54.83;30.33;;;;;;;;;;4995989;28;20031;-50
2021/08/30 08:47:31;;;;;;;104.75;58.92;;;;;;;;;;4996053;28;20026;-49
2021/08/30 08:49:58;;;;;;;224.27;121.45;;;;;;;;;;4995887;28;20030;-47
2021/08/30 08:52:26;;;;;;;57.10;34.97;;;;;;;;;;4995996;28;20031;-46
2021/08/30 08:54:52;;;;;;;82.40;54.22;;;;;;;;;;4995924;28;20022;-48
2021/08/30 08:57:18;;;;;;;160.93;97.70;;;;;;;;;;4995697;28;20496;-48
2021/08/30 08:59:58;;;;;;;10.07;6.43;;;;;;;;;;4995788;28;20041;-48
2021/08/30 09:02:28;;;;;;;34.95;20.23;;;;;;;;;;4995821;28;20104;-49
2021/08/30 09:04:55;;;;;;;147.55;84.68;;;;;;;;;;4995823;28;20026;-49
2021/08/30 09:07:30;;;;;;;77.47;41.35;;;;;;;;;;4995995;28;20050;-50
2021/08/30 09:09:58;;;;;;;87.80;48.70;;;;;;;;;;4994523;28;20053;-49
2021/08/30 09:12:24;;;;;;;119.85;70.18;;;;;;;;;;4995732;28;20034;-51
2021/08/30 09:14:50;;;;;;;20.25;11.98;;;;;;;;;;4995525;28;20541;-50
2021/08/30 09:17:16;;;;;;;50.60;29.75;;;;;;;;;;4995495;28;20057;-50
2021/08/30 09:19:43;;;;;;;36.95;21.77;;;;;;;;;;4995184;28;20038;-46
2021/08/30 09:22:10;;;;;;;35.15;22.45;;;;;;;;;;4995016;28;20483;-50
2021/08/30 09:24:36;;;;;;;164.18;104.07;;;;;;;;;;4995189;28;20509;-49
2021/08/30 09:27:02;;;;;;;48.92;27.23;;;;;;;;;;4995077;28;20027;-50
2021/08/30 09:29:30;;;;;;;78.03;43.03;;;;;;;;;;4995193;28;20466;-47
2021/08/30 09:32:00;;;;;;;97.43;42.17;;;;;;;;;;4994933;28;20042;-46
2021/08/30 09:34:32;;;;;;;86.07;53.90;;;;;;;;;;4994388;28;20021;-48
2021/08/30 09:36:59;;;;;;;16.35;11.05;;;;;;;;;;4994683;28;20415;-49
2021/08/30 09:39:26;;;;;;;28.77;17.92;;;;;;;;;;4993835;28;20062;-48
2021/08/30 09:41:53;;;;;;;14.13;9.95;;;;;;;;;;4995472;28;20462;-48
2021/08/30 09:44:26;;;;;;;12.73;8.25;;;;;;;;;;4995311;28;20037;-49
2021/08/30 09:46:55;;;;;;;12.35;6.65;;;;;;;;;;4994020;28;20387;-47
2021/08/30 09:49:25;;;;;;;17.95;11.10;;;;;;;;;;4995171;28;20406;-49
2021/08/30 09:51:55;;;;;;;64.80;39.78;;;;;;;;;;4995248;28;20121;-49
2021/08/30 09:54:24;;;;;;;22.52;12.38;;;;;;;;;;4995173;28;20024;-47
2021/08/30 09:56:51;;;;;;;49.35;19.58;;;;;;;;;;4995105;28;20041;-48
2021/08/30 09:59:18;;;;;;;60.10;31.63;;;;;;;;;;4995155;28;20026;-49
2021/08/30 10:01:47;;;;;;;88.85;43.08;;;;;;;;;;4994971;28;20038;-45
2021/08/30 10:04:18;;;;;;;41.63;25.63;;;;;;;;;;4994935;28;20061;-48
2021/08/30 10:06:44;;;;;;;26.83;14.45;;;;;;;;;;4994794;28;20119;-46
2021/08/30 10:09:12;;;;;;;15.23;8.95;;;;;;;;;;4993170;28;20523;-48
2021/08/30 10:11:39;;;;;;;35.15;18.23;;;;;;;;;;4994529;28;20044;-47
2021/08/30 10:14:07;;;;;;;57.88;29.27;;;;;;;;;;4994761;28;20045;-46
2021/08/30 10:16:34;;;;;;;149.18;77.20;;;;;;;;;;4994750;28;20101;-52
2021/08/30 10:19:00;;;;;;;35.47;20.63;;;;;;;;;;4994713;28;20475;-45
2021/08/30 10:21:27;;;;;;;48.28;27.80;;;;;;;;;;4994830;28;20033;-47
2021/08/30 10:23:53;;;;;;;50.75;30.63;;;;;;;;;;4994861;28;20030;-47
2021/08/30 10:26:19;;;;;;;83.03;49.88;;;;;;;;;;4994742;28;20471;-47
2021/08/30 10:28:47;;;;;;;32.42;19.10;;;;;;;;;;4994727;28;20022;-47
2021/08/30 10:31:14;;;;;;;30.20;17.92;;;;;;;;;;4994577;28;20402;-48
2021/08/30 10:33:40;;;;;;;6.45;4.70;;;;;;;;;;4994563;28;20376;-46
2021/08/30 10:36:13;;;;;;;29.48;8.20;;;;;;;;;;4994522;28;20475;-47
2021/08/30 10:38:39;;;;;;;7.00;4.55;;;;;;;;;;4994353;28;20479;-48
2021/08/30 10:41:15;;;;;;;12.50;7.72;;;;;;;;;;4994644;28;20568;-48
2021/08/30 10:43:45;;;;;;;11.93;3.30;;;;;;;;;;4994409;28;20033;-49
2021/08/30 10:46:17;;;;;;;7.53;3.78;;;;;;;;;;4993472;28;20033;-49
2021/08/30 10:48:49;;;;;;;9.93;4.28;;;;;;;;;;4994385;28;20101;-52
2021/08/30 10:51:19;;;;;;;7.15;4.78;;;;;;;;;;4994271;28;20046;-51
2021/08/30 10:53:57;;;;;;;14.55;4.72;;;;;;;;;;4994308;28;20026;-51
2021/08/30 10:56:25;;;;;;;18.90;9.93;;;;;;;;;;4994226;28;20038;-47
2021/08/30 10:58:51;;;;;;;25.30;13.48;;;;;;;;;;4994084;28;20026;-46
2021/08/30 11:01:17;;;;;;;25.40;10.75;;;;;;;;;;4994466;28;20069;-47
2021/08/30 11:03:43;;;;;;;14.55;7.95;;;;;;;;;;4994173;28;20030;-49
2021/08/30 11:06:11;;;;;;;15.68;9.73;;;;;;;;;;4994158;28;20483;-48
2021/08/30 11:08:41;;;;;;;13.82;6.95;;;;;;;;;;4993161;28;20030;-46
2021/08/30 11:11:07;;;;;;;8.55;5.05;;;;;;;;;;4993365;28;20050;-47
2021/08/30 11:13:33;;;;;;;25.15;14.48;;;;;;;;;;4993310;28;20029;-46
2021/08/30 11:16:00;;;;;;;12.85;7.65;;;;;;;;;;4993630;28;20105;-48
2021/08/30 11:18:26;;;;;;;26.27;14.48;;;;;;;;;;4993440;28;20022;-47
2021/08/30 11:20:52;;;;;;;24.95;14.93;;;;;;;;;;4993267;28;20479;-48
2021/08/30 11:23:20;;;;;;;14.07;7.78;;;;;;;;;;4993430;28;20030;-47
2021/08/30 11:25:46;;;;;;;24.15;12.88;;;;;;;;;;4993340;28;20017;-46
2021/08/30 11:28:16;;;;;;;15.82;9.45;;;;;;;;;;4993080;28;20453;-48
2021/08/30 11:30:42;;;;;;;68.20;40.65;;;;;;;;;;4993019;28;20037;-48
2021/08/30 11:33:09;;;;;;;18.30;10.18;;;;;;;;;;4993059;28;20061;-46
2021/08/30 11:35:35;;;;;;;22.77;13.00;;;;;;;;;;4990320;28;20026;-47
2021/08/30 11:38:11;;;;;;;18.67;10.30;;;;;;;;;;4993046;28;20049;-48
2021/08/30 11:40:37;;;;;;;31.73;16.77;;;;;;;;;;4990632;28;20509;-49
2021/08/30 11:43:11;;;;;;;7.82;5.65;;;;;;;;;;4992976;28;20037;-48
2021/08/30 11:45:37;;;;;;;84.53;49.58;;;;;;;;;;4992992;28;20478;-49
2021/08/30 11:48:03;;;;;;;47.78;27.25;;;;;;;;;;4992951;28;20110;-47
2021/08/30 11:50:31;;;;;;;55.92;30.75;;;;;;;;;;4992768;28;20037;-47
2021/08/30 11:52:59;;;;;;;101.88;59.40;;;;;;;;;;4992877;28;20011;-46
2021/08/30 11:55:26;;;;;;;57.78;29.05;;;;;;;;;;4992743;28;20529;-45
2021/08/30 11:58:02;;;;;;;24.02;14.98;;;;;;;;;;4995677;28;20073;-48
2021/08/30 12:00:28;;;;;;;33.67;15.07;;;;;;;;;;4996881;28;20029;-48
2021/08/30 12:02:58;;;;;;;7.93;3.67;;;;;;;;;;4997200;28;20097;-45
2021/08/30 12:05:25;;;;;;;19.73;10.35;;;;;;;;;;4997206;28;20030;-44
2021/08/30 12:07:55;;;;;;;11.38;6.78;;;;;;;;;;4997183;28;20390;-46
2021/08/30 12:10:22;;;;;;;14.32;8.35;;;;;;;;;;4996728;28;20108;-45
2021/08/30 12:15:22;;;;;;;21.98;13.63;;;;;;;;;;4997260;28;20034;-48
2021/08/30 12:17:55;;;;;;;26.85;15.02;;;;;;;;;;4996878;28;20038;-46
2021/08/30 12:20:25;;;;;;;26.67;14.55;;;;;;;;;;4996970;28;20497;-45
2021/08/30 12:22:53;;;;;;;100.80;57.33;;;;;;;;;;4996708;28;20096;-43
2021/08/30 12:25:20;;;;;;;29.60;16.45;;;;;;;;;;4996691;28;20118;-48
2021/08/30 12:27:47;;;;;;;39.10;20.25;;;;;;;;;;4996656;28;20023;-45
2021/08/30 12:30:24;;;;;;;17.27;11.25;;;;;;;;;;4996600;28;20072;-47
2021/08/30 12:33:01;;;;;;;21.15;11.60;;;;;;;;;;4996728;28;20061;-44
2021/08/30 12:35:28;;;;;;;57.75;32.40;;;;;;;;;;4996523;28;20053;-45
2021/08/30 12:37:55;;;;;;;18.08;9.50;;;;;;;;;;4996451;28;20033;-45
2021/08/30 12:40:22;;;;;;;8.55;5.18;;;;;;;;;;4996380;28;20113;-53
2021/08/30 12:42:49;;;;;;;12.18;6.10;;;;;;;;;;4996393;28;20041;-46
2021/08/30 12:45:15;;;;;;;11.93;6.80;;;;;;;;;;4996431;28;20054;-48
2021/08/30 12:47:44;;;;;;;48.70;28.35;;;;;;;;;;4996269;28;20455;-46
2021/08/30 12:50:10;;;;;;;27.83;15.73;;;;;;;;;;4996066;28;20026;-48
2021/08/30 12:52:37;;;;;;;28.23;16.30;;;;;;;;;;4996268;28;20026;-47
2021/08/30 12:55:04;;;;;;;18.52;10.18;;;;;;;;;;4996244;28;20133;-45
2021/08/30 12:57:30;;;;;;;53.17;30.17;;;;;;;;;;4996215;28;20026;-47
2021/08/30 13:00:01;;;;;;;141.90;76.03;;;;;;;;;;4996116;28;20106;-48
2021/08/30 13:02:27;;;;;;;191.65;98.70;;;;;;;;;;4996156;28;20027;-45
2021/08/30 13:04:54;;;;;;;43.17;22.98;;;;;;;;;;4996018;28;20027;-46
2021/08/30 13:07:20;;;;;;;46.92;25.23;;;;;;;;;;4996093;28;20029;-44
2021/08/30 13:09:47;;;;;;;91.32;55.20;;;;;;;;;;4994698;28;20093;-45
2021/08/30 13:12:13;;;;;;;51.40;33.25;;;;;;;;;;4995780;28;20070;-46
2021/08/30 13:14:39;;;;;;;78.95;46.45;;;;;;;;;;4995177;28;20105;-47
2021/08/30 13:17:05;;;;;;;166.82;112.00;;;;;;;;;;4995396;28;20029;-46
2021/08/30 13:19:31;;;;;;;18.80;11.60;;;;;;;;;;4995406;28;20031;-47
2021/08/30 13:22:00;;;;;;;50.35;29.20;;;;;;;;;;4991826;28;20057;-47
2021/08/30 13:24:27;;;;;;;46.40;26.70;;;;;;;;;;4971947;28;20033;-46
2021/08/30 13:26:53;;;;;;;11.48;6.60;;;;;;;;;;4970938;28;20037;-45
2021/08/30 13:29:19;;;;;;;28.42;17.83;;;;;;;;;;4971192;28;20041;-45
2021/08/30 13:31:45;;;;;;;72.75;39.38;;;;;;;;;;4971231;28;20034;-46
2021/08/30 13:34:12;;;;;;;50.83;31.05;;;;;;;;;;4971059;28;20237;-46
2021/08/30 13:36:38;;;;;;;170.82;109.88;;;;;;;;;;4971363;28;20026;-46
2021/08/30 13:39:04;;;;;;;57.40;27.73;;;;;;;;;;4971078;28;20037;-45
2021/08/30 13:41:30;;;;;;;32.63;17.13;;;;;;;;;;4971559;28;20038;-46
2021/08/30 13:43:58;;;;;;;24.42;15.55;;;;;;;;;;4971232;28;20034;-46
2021/08/30 13:46:24;;;;;;;8.20;4.55;;;;;;;;;;4970919;28;20046;-46
2021/08/30 13:48:52;;;;;;;3.80;2.97;;;;;;;;;;4970829;28;20034;-46
2021/08/30 13:51:18;;;;;;;3.20;2.45;;;;;;;;;;4971535;28;20046;-46
2021/08/30 13:53:44;;;;;;;129.75;86.43;;;;;;;;;;4970668;28;21108;-48
2021/08/30 13:56:10;;;;;;;44.78;18.98;;;;;;;;;;4971108;28;20044;-46
2021/08/30 13:58:39;;;;;;;4.60;2.10;;;;;;;;;;4970491;28;20502;-47
2021/08/30 14:01:05;;;;;;;11.75;5.20;;;;;;;;;;4970880;28;20112;-48
2021/08/30 14:03:31;;;;;;;15.50;10.05;;;;;;;;;;4970721;28;20033;-47
2021/08/30 14:05:57;;;;;;;13.52;8.98;;;;;;;;;;4970898;28;20362;-48
2021/08/30 14:08:23;;;;;;;5.82;3.60;;;;;;;;;;4970619;28;20097;-48
2021/08/30 14:10:49;;;;;;;6.93;3.60;;;;;;;;;;4970291;28;21059;-46
2021/08/30 14:13:15;;;;;;;11.38;5.28;;;;;;;;;;4970532;28;20030;-46
2021/08/30 14:15:41;;;;;;;51.00;26.08;;;;;;;;;;4970265;28;20026;-47
2021/08/30 14:18:07;;;;;;;7.80;4.75;;;;;;;;;;4970650;28;20030;-47
2021/08/30 14:20:33;;;;;;;5.80;3.05;;;;;;;;;;4970191;28;20034;-48
2021/08/30 14:22:59;;;;;;;5.75;3.50;;;;;;;;;;4970740;28;20542;-47
2021/08/30 14:25:25;;;;;;;3.65;1.60;;;;;;;;;;4970846;28;20073;-44
2021/08/30 14:27:52;;;;;;;56.55;12.40;;;;;;;;;;4970123;28;20041;-47
2021/08/30 14:30:18;;;;;;;23.52;6.18;;;;;;;;;;4970204;28;20086;-46
2021/08/30 14:32:45;;;;;;;104.72;46.35;;;;;;;;;;4969990;28;20030;-47